Time;durP1;ratioP1;P1;durP2;ratioP2;P2;SDS_P1;SDS_P2;PMS_P1;PMS_P2;Temp;Humidity;BMP_temperature;BMP_pressure;BME280_temperature;BME280_humidity;BME280_pressure;Samples;Min_cycle;Max_cycle;Signal;HPM_P1;HPM_P2
2023/11/27 00:00:25;;;;;;;14.88;8.07;;;7.00;99.90;;;;;;4995164;28;20120;-93
2023/11/27 00:02:54;;;;;;;10.45;6.43;;;7.00;99.90;;;;;;5000535;28;20031;-95
2023/11/27 00:05:21;;;;;;;16.00;6.90;;;7.00;99.90;;;;;;5002545;28;20072;-95
2023/11/27 00:07:48;;;;;;;12.77;7.75;;;7.00;99.90;;;;;;5003951;28;20082;-96
2023/11/27 00:10:16;;;;;;;12.40;6.70;;;7.10;99.90;;;;;;5006108;28;20382;-95
2023/11/27 00:12:42;;;;;;;;;;;7.10;99.90;;;;;;5001013;28;20402;-95
2023/11/27 00:15:08;;;;;;;15.82;6.00;;;7.10;99.90;;;;;;5002554;28;19952;-94
2023/11/27 00:17:34;;;;;;;9.32;5.40;;;7.10;99.90;;;;;;5003662;28;20062;-96
2023/11/27 00:20:00;;;;;;;15.00;4.82;;;7.00;99.90;;;;;;5001778;28;20037;-96
2023/11/27 00:22:25;;;;;;;7.55;4.10;;;7.00;99.90;;;;;;4984685;28;20034;-93
2023/11/27 00:24:58;;;;;;;8.13;4.60;;;6.80;99.90;;;;;;4999273;28;20046;-95
2023/11/27 00:27:24;;;;;;;10.50;4.90;;;6.80;99.90;;;;;;4996814;28;20046;-96
2023/11/27 00:29:50;;;;;;;9.10;4.22;;;6.80;99.90;;;;;;4999742;28;20130;-95
2023/11/27 00:32:15;;;;;;;7.53;3.58;;;6.70;99.90;;;;;;4995780;28;20035;-95
2023/11/27 00:34:46;;;;;;;5.50;3.95;;;6.90;99.90;;;;;;5004865;28;20093;-93
2023/11/27 00:37:13;;;;;;;5.60;3.42;;;6.80;99.90;;;;;;5005804;28;20054;-93
2023/11/27 00:39:39;;;;;;;5.72;3.08;;;6.70;99.90;;;;;;5004951;28;20026;-93
2023/11/27 00:42:05;;;;;;;4.32;2.83;;;6.70;99.90;;;;;;4997763;28;20117;-94
2023/11/27 00:44:33;;;;;;;3.97;2.28;;;6.60;99.90;;;;;;4995211;28;20044;-93
2023/11/27 00:47:04;;;;;;;6.28;2.40;;;6.60;99.90;;;;;;4996792;28;20097;-93
2023/11/27 00:49:30;;;;;;;3.63;2.38;;;6.50;99.90;;;;;;5000907;28;20030;-94
2023/11/27 00:51:56;;;;;;;7.53;2.60;;;6.60;99.90;;;;;;5000776;28;20533;-94
2023/11/27 00:54:21;;;;;;;8.98;3.30;;;6.70;99.90;;;;;;4998572;28;20033;-95
2023/11/27 00:56:47;;;;;;;5.70;2.58;;;6.60;99.90;;;;;;5007271;28;20030;-93
2023/11/27 00:59:13;;;;;;;7.18;2.80;;;6.70;99.90;;;;;;4991679;28;20030;-93
2023/11/27 01:01:38;;;;;;;8.18;3.80;;;6.70;99.90;;;;;;4989821;28;20058;-94
2023/11/27 01:04:04;;;;;;;6.85;3.50;;;6.70;99.90;;;;;;4977812;28;20041;-94
2023/11/27 01:06:30;;;;;;;8.43;3.20;;;6.60;99.90;;;;;;4994990;28;20061;-94
2023/11/27 01:08:55;;;;;;;5.95;3.13;;;6.70;99.90;;;;;;4995453;28;20089;-94
2023/11/27 01:11:23;;;;;;;9.00;3.35;;;6.90;99.90;;;;;;4993291;28;20026;-95
2023/11/27 01:13:51;;;;;;;5.07;2.78;;;6.80;99.90;;;;;;5002054;28;20061;-95
2023/11/27 01:16:17;;;;;;;11.25;2.97;;;6.80;99.90;;;;;;5001758;28;20037;-95
2023/11/27 01:18:42;;;;;;;11.77;3.17;;;6.80;99.90;;;;;;4998926;28;20022;-94
2023/11/27 01:21:10;;;;;;;5.85;3.17;;;6.80;99.90;;;;;;4998218;28;20030;-94
2023/11/27 01:23:36;;;;;;;;;;;6.90;99.90;;;;;;4994978;28;20130;-94
2023/11/27 01:26:07;;;;;;;10.82;3.08;;;7.00;99.90;;;;;;4994352;28;19942;-94
2023/11/27 01:28:33;;;;;;;7.40;3.70;;;6.90;99.90;;;;;;4999790;28;20026;-94
2023/11/27 01:30:59;;;;;;;11.32;3.60;;;6.90;99.90;;;;;;5001517;28;20041;-94
2023/11/27 01:33:25;;;;;;;7.97;2.78;;;7.00;99.90;;;;;;5004170;28;20030;-95
2023/11/27 01:35:50;;;;;;;5.57;3.25;;;7.00;99.90;;;;;;5003410;28;20299;-95
2023/11/27 01:38:16;;;;;;;7.10;3.15;;;7.10;99.90;;;;;;4988172;28;20030;-96
2023/11/27 01:40:42;;;;;;;7.72;3.28;;;7.10;99.90;;;;;;5006232;28;20054;-95
2023/11/27 01:43:16;;;;;;;5.68;2.80;;;7.00;99.90;;;;;;5007684;28;20061;-95
2023/11/27 01:45:42;;;;;;;4.88;2.60;;;7.10;99.90;;;;;;5005413;28;20034;-93
2023/11/27 01:48:12;;;;;;;6.75;2.63;;;7.00;99.90;;;;;;5004746;28;20333;-94
2023/11/27 01:50:41;;;;;;;5.30;2.70;;;7.00;99.90;;;;;;5004671;28;20034;-96
2023/11/27 01:53:06;;;;;;;7.80;3.03;;;7.10;99.90;;;;;;5004196;28;20046;-96
2023/11/27 01:55:32;;;;;;;6.90;2.63;;;7.10;99.90;;;;;;4989916;28;20146;-94
2023/11/27 01:57:58;;;;;;;6.25;3.05;;;7.20;99.90;;;;;;5000893;28;20037;-95
2023/11/27 02:00:32;;;;;;;5.88;2.90;;;7.10;99.90;;;;;;5006273;28;20034;-95
2023/11/27 02:02:59;;;;;;;9.02;2.97;;;7.00;99.90;;;;;;5000373;28;20086;-94
2023/11/27 02:05:25;;;;;;;9.23;3.60;;;7.00;99.90;;;;;;5004728;28;20034;-94
2023/11/27 02:07:51;;;;;;;3.55;2.58;;;7.10;99.90;;;;;;4980485;28;20069;-95
2023/11/27 02:10:17;;;;;;;6.60;3.28;;;7.10;99.90;;;;;;4997675;28;20038;-95
2023/11/27 02:12:43;;;;;;;6.68;2.78;;;7.10;99.90;;;;;;5001912;28;20093;-94
2023/11/27 02:15:11;;;;;;;9.13;3.60;;;7.20;99.90;;;;;;4999363;28;20026;-96
2023/11/27 02:17:37;;;;;;;;;;;7.20;99.90;;;;;;4999819;28;20090;-95
2023/11/27 02:20:04;;;;;;;4.15;2.38;;;7.30;99.90;;;;;;4994526;28;19993;-94
2023/11/27 02:22:30;;;;;;;5.43;3.40;;;7.30;99.90;;;;;;4990539;28;20062;-94
2023/11/27 02:25:00;;;;;;;8.80;3.47;;;7.20;99.90;;;;;;4995622;28;20027;-95
2023/11/27 02:27:27;;;;;;;5.57;3.20;;;7.20;99.90;;;;;;5002123;28;20065;-95
2023/11/27 02:29:53;;;;;;;7.75;2.95;;;7.20;99.90;;;;;;4981579;28;20069;-95
2023/11/27 02:32:18;;;;;;;6.95;3.30;;;7.20;99.90;;;;;;5001305;28;20098;-94
2023/11/27 02:34:47;;;;;;;5.32;3.00;;;7.20;99.90;;;;;;5001557;28;20057;-96
2023/11/27 02:37:13;;;;;;;7.18;3.63;;;7.10;99.90;;;;;;5000560;28;20116;-94
2023/11/27 02:39:38;;;;;;;6.85;3.83;;;7.30;99.90;;;;;;5005987;28;20023;-96
2023/11/27 02:42:09;;;;;;;7.95;3.78;;;7.30;99.90;;;;;;4997576;28;20030;-93
2023/11/27 02:44:37;;;;;;;4.80;3.17;;;7.20;99.90;;;;;;5002311;28;20018;-93
2023/11/27 02:47:05;;;;;;;9.50;3.05;;;7.20;99.90;;;;;;5003134;28;20094;-94
2023/11/27 02:49:36;;;;;;;10.70;3.90;;;7.20;99.90;;;;;;5004089;28;20030;-94
2023/11/27 02:52:02;;;;;;;5.25;3.33;;;7.20;99.90;;;;;;5001853;28;20034;-93
2023/11/27 02:54:28;;;;;;;5.47;3.40;;;7.30;99.90;;;;;;5006403;28;20028;-94
2023/11/27 02:56:53;;;;;;;5.53;4.10;;;7.20;99.90;;;;;;5001065;28;20026;-94
2023/11/27 02:59:19;;;;;;;8.80;3.45;;;7.20;99.90;;;;;;5001195;28;20026;-94
2023/11/27 03:01:47;;;;;;;8.65;4.03;;;7.20;99.90;;;;;;4998702;28;20185;-94
2023/11/27 03:04:13;;;;;;;;;;;7.20;99.90;;;;;;5000423;28;20554;-96
2023/11/27 03:06:39;;;;;;;6.03;3.53;;;7.20;99.90;;;;;;4998928;28;20400;-94
2023/11/27 03:09:05;;;;;;;6.53;3.47;;;7.10;99.90;;;;;;4998114;28;20037;-94
2023/11/27 03:11:30;;;;;;;5.95;3.65;;;7.00;99.90;;;;;;4998754;28;20430;-93
2023/11/27 03:13:56;;;;;;;6.32;3.78;;;7.10;99.90;;;;;;4995209;28;20031;-92
2023/11/27 03:16:24;;;;;;;6.20;3.50;;;7.10;99.90;;;;;;4995484;28;20034;-93
2023/11/27 03:18:50;;;;;;;4.95;3.53;;;7.10;99.90;;;;;;4991784;28;20039;-96
2023/11/27 03:21:20;;;;;;;6.80;3.97;;;7.20;99.90;;;;;;4994441;28;20026;-94
2023/11/27 03:23:46;;;;;;;7.63;3.03;;;7.10;99.90;;;;;;4991377;28;20126;-93
2023/11/27 03:26:16;;;;;;;5.00;3.35;;;7.10;99.90;;;;;;4994393;28;20031;-93
2023/11/27 03:28:42;;;;;;;7.60;3.67;;;7.10;99.90;;;;;;4998397;28;20030;-92
2023/11/27 03:31:10;;;;;;;8.98;3.78;;;7.20;99.90;;;;;;5000761;28;20037;-94
2023/11/27 03:33:36;;;;;;;5.53;3.53;;;7.00;99.90;;;;;;4996079;28;20056;-94
2023/11/27 03:36:06;;;;;;;4.03;2.83;;;7.10;99.90;;;;;;4994022;28;20034;-93
2023/11/27 03:38:34;;;;;;;5.95;3.42;;;7.10;99.90;;;;;;4991261;28;20386;-93
2023/11/27 03:41:05;;;;;;;7.80;3.67;;;7.10;99.90;;;;;;4990185;28;20034;-92
2023/11/27 03:43:32;;;;;;;9.30;3.65;;;7.20;99.90;;;;;;4989108;28;20088;-93
2023/11/27 03:46:00;;;;;;;6.87;3.50;;;7.10;99.90;;;;;;4994026;28;20691;-93
2023/11/27 03:48:25;;;;;;;;;;;7.20;99.90;;;;;;4993191;28;20030;-93
2023/11/27 03:50:53;;;;;;;5.68;3.60;;;7.20;99.90;;;;;;4991686;28;20516;-93
2023/11/27 03:53:19;;;;;;;6.50;4.47;;;7.20;99.90;;;;;;4991915;28;20033;-93
2023/11/27 03:55:45;;;;;;;7.57;4.53;;;7.00;99.90;;;;;;4995056;28;20026;-95
2023/11/27 03:58:10;;;;;;;11.73;5.85;;;7.10;99.90;;;;;;4993914;28;20044;-94
2023/11/27 04:00:36;;;;;;;13.20;5.93;;;7.10;99.90;;;;;;4989941;28;20031;-94
2023/11/27 04:03:02;;;;;;;10.50;6.28;;;7.10;99.90;;;;;;4996464;28;20096;-93
2023/11/27 04:05:28;;;;;;;11.82;6.10;;;7.10;99.90;;;;;;4974609;28;20031;-93
2023/11/27 04:07:53;;;;;;;14.32;6.95;;;7.10;99.90;;;;;;4989947;28;20043;-94
2023/11/27 04:10:19;;;;;;;10.32;6.50;;;7.10;99.90;;;;;;4994736;28;20426;-93
2023/11/27 04:12:45;;;;;;;16.45;7.30;;;7.00;99.90;;;;;;4987168;28;20031;-93
2023/11/27 04:15:11;;;;;;;12.30;6.72;;;7.10;99.90;;;;;;4994204;28;20355;-94
2023/11/27 04:17:37;;;;;;;14.43;8.70;;;7.10;99.90;;;;;;4994857;28;20077;-93
2023/11/27 04:20:06;;;;;;;12.55;7.57;;;7.20;99.90;;;;;;4994831;28;20026;-93
2023/11/27 04:22:32;;;;;;;14.48;8.38;;;7.10;99.90;;;;;;4993320;28;20034;-93
2023/11/27 04:24:59;;;;;;;15.80;8.15;;;7.20;99.90;;;;;;4993168;28;20026;-94
2023/11/27 04:27:24;;;;;;;16.88;9.05;;;7.30;99.90;;;;;;4989248;28;20042;-94
2023/11/27 04:29:53;;;;;;;12.15;7.60;;;7.20;99.90;;;;;;4992666;28;20038;-93
2023/11/27 04:32:19;;;;;;;20.17;8.10;;;7.20;99.90;;;;;;4993340;28;20046;-92
2023/11/27 04:34:46;;;;;;;19.95;9.23;;;7.30;99.90;;;;;;4995112;28;20034;-94
2023/11/27 04:37:16;;;;;;;17.05;8.95;;;7.30;99.90;;;;;;4995870;28;20137;-93
2023/11/27 04:39:42;;;;;;;19.10;8.95;;;7.30;99.90;;;;;;4996182;28;20038;-93
2023/11/27 04:42:09;;;;;;;15.25;9.13;;;7.10;99.90;;;;;;5000785;28;20033;-93
2023/11/27 04:44:35;;;;;;;17.07;10.17;;;7.10;99.90;;;;;;4991476;28;20030;-93
2023/11/27 04:47:03;;;;;;;21.27;10.25;;;7.10;99.90;;;;;;4992254;28;20812;-93
2023/11/27 04:49:29;;;;;;;16.45;10.63;;;7.10;99.90;;;;;;4994438;28;20469;-93
2023/11/27 04:51:57;;;;;;;23.05;10.68;;;7.10;99.90;;;;;;4990331;28;20037;-93
2023/11/27 04:54:23;;;;;;;17.27;9.85;;;7.10;99.90;;;;;;4987008;28;20057;-93
2023/11/27 04:56:49;;;;;;;22.25;11.57;;;7.10;99.90;;;;;;4990146;28;20080;-93
2023/11/27 04:59:14;;;;;;;22.13;10.93;;;7.00;99.90;;;;;;4991763;28;20095;-92
2023/11/27 05:01:40;;;;;;;27.90;10.82;;;7.00;99.90;;;;;;4989279;28;20289;-94
2023/11/27 05:04:08;;;;;;;25.65;12.45;;;7.10;99.90;;;;;;4986734;28;20513;-92
2023/11/27 05:06:36;;;;;;;16.40;10.45;;;7.10;99.90;;;;;;4988708;28;20031;-92
2023/11/27 05:09:02;;;;;;;22.55;11.70;;;7.00;99.90;;;;;;4990872;28;20129;-93
2023/11/27 05:11:28;;;;;;;24.05;11.18;;;6.90;99.90;;;;;;4991317;28;20505;-93
2023/11/27 05:13:56;;;;;;;28.88;11.48;;;6.90;99.90;;;;;;4989009;28;20037;-93
2023/11/27 05:16:24;;;;;;;21.52;10.52;;;6.90;99.90;;;;;;4993002;28;20121;-92
2023/11/27 05:18:53;;;;;;;21.02;11.43;;;7.00;99.90;;;;;;4990839;28;20038;-93
2023/11/27 05:21:18;;;;;;;19.70;10.95;;;7.10;99.90;;;;;;4990420;28;20089;-93
2023/11/27 05:23:47;;;;;;;18.27;11.43;;;7.10;99.90;;;;;;4992458;28;20030;-93
2023/11/27 05:26:13;;;;;;;20.48;10.70;;;7.10;99.90;;;;;;4992527;28;20034;-93
2023/11/27 05:28:39;;;;;;;23.00;10.85;;;7.10;99.90;;;;;;4993843;28;20038;-92
2023/11/27 05:31:05;;;;;;;30.80;12.18;;;7.10;99.90;;;;;;4987702;28;20030;-92
2023/11/27 05:33:32;;;;;;;21.70;11.82;;;7.10;99.90;;;;;;4990698;28;20022;-92
2023/11/27 05:35:59;;;;;;;25.67;12.43;;;7.10;99.90;;;;;;4989847;28;20114;-91
2023/11/27 05:38:24;;;;;;;21.77;10.23;;;7.10;99.90;;;;;;4989172;28;20073;-92
2023/11/27 05:40:52;;;;;;;22.35;11.25;;;7.10;99.90;;;;;;4985164;28;20054;-95
2023/11/27 05:43:19;;;;;;;27.80;11.77;;;7.00;99.90;;;;;;4983469;28;20034;-92
2023/11/27 05:45:49;;;;;;;19.17;10.93;;;7.10;99.90;;;;;;4989088;28;20122;-91
2023/11/27 05:48:18;;;;;;;23.25;11.73;;;7.10;99.90;;;;;;4989257;28;20030;-92
2023/11/27 05:50:46;;;;;;;21.05;11.32;;;7.00;99.90;;;;;;4989536;28;20026;-91
2023/11/27 05:53:12;;;;;;;24.25;11.05;;;7.10;99.90;;;;;;4989877;28;20096;-91
2023/11/27 05:55:38;;;;;;;24.63;11.57;;;7.00;99.90;;;;;;4987254;28;20121;-92
2023/11/27 05:58:06;;;;;;;26.20;11.63;;;7.10;99.90;;;;;;4988838;28;20038;-91
2023/11/27 06:00:37;;;;;;;18.55;9.80;;;7.10;99.90;;;;;;4981951;28;20027;-91
2023/11/27 06:03:05;;;;;;;22.90;11.10;;;7.10;99.90;;;;;;4987810;28;20053;-92
2023/11/27 06:05:33;;;;;;;27.95;10.73;;;6.90;99.90;;;;;;4987365;28;20037;-91
2023/11/27 06:08:00;;;;;;;24.77;11.85;;;6.90;99.90;;;;;;4986696;28;20050;-91
2023/11/27 06:10:26;;;;;;;25.45;10.45;;;6.90;99.90;;;;;;4988176;28;20777;-90
2023/11/27 06:12:52;;;;;;;19.45;10.00;;;7.00;99.90;;;;;;4985219;28;20034;-92
2023/11/27 06:15:17;;;;;;;20.00;10.30;;;7.00;99.90;;;;;;4985500;28;20027;-90
2023/11/27 06:17:44;;;;;;;24.92;11.70;;;6.90;99.90;;;;;;4985875;28;20034;-92
2023/11/27 06:20:16;;;;;;;23.48;9.80;;;7.00;99.90;;;;;;4987974;28;20019;-91
2023/11/27 06:22:44;;;;;;;19.75;9.85;;;6.90;99.90;;;;;;4989771;28;20042;-92
2023/11/27 06:25:10;;;;;;;20.88;8.98;;;6.90;99.90;;;;;;4984653;28;20479;-90
2023/11/27 06:27:36;;;;;;;25.98;10.77;;;6.90;99.90;;;;;;4981288;28;20049;-92
2023/11/27 06:30:03;;;;;;;19.50;9.77;;;6.90;99.90;;;;;;4987736;28;20038;-92
2023/11/27 06:32:29;;;;;;;17.98;9.82;;;7.00;99.90;;;;;;4989010;28;20142;-92
2023/11/27 06:34:55;;;;;;;18.90;10.13;;;7.10;99.90;;;;;;4988398;28;20054;-92
2023/11/27 06:37:21;;;;;;;21.40;10.55;;;7.00;99.90;;;;;;4987020;28;20109;-93
2023/11/27 06:39:47;;;;;;;21.27;9.80;;;7.10;99.90;;;;;;4986180;28;20617;-91
2023/11/27 06:42:15;;;;;;;18.67;10.27;;;7.10;99.90;;;;;;4989387;28;20030;-91
2023/11/27 06:44:41;;;;;;;24.42;10.65;;;7.10;99.90;;;;;;4992491;28;20038;-91
2023/11/27 06:47:16;;;;;;;21.52;10.50;;;7.10;99.90;;;;;;4988271;28;20109;-90
2023/11/27 06:49:43;;;;;;;24.45;9.93;;;6.90;99.90;;;;;;4985465;28;20454;-91
2023/11/27 06:52:09;;;;;;;21.60;9.05;;;7.00;99.90;;;;;;4986359;28;20522;-91
2023/11/27 06:54:37;;;;;;;19.65;9.23;;;7.00;99.90;;;;;;4973522;28;20038;-91
2023/11/27 06:57:03;;;;;;;16.60;9.10;;;7.10;99.90;;;;;;4986969;28;20022;-91
2023/11/27 06:59:33;;;;;;;16.15;9.35;;;7.00;99.90;;;;;;4970864;28;20097;-90
2023/11/27 07:01:59;;;;;;;21.63;9.90;;;7.00;99.90;;;;;;4986214;28;20060;-91
2023/11/27 07:04:24;;;;;;;19.50;9.23;;;7.00;99.90;;;;;;4983283;28;20042;-90
2023/11/27 07:06:55;;;;;;;14.40;8.77;;;7.10;99.90;;;;;;4988638;28;20027;-92
2023/11/27 07:09:23;;;;;;;17.92;9.65;;;6.90;99.90;;;;;;4994938;28;20030;-91
2023/11/27 07:11:54;;;;;;;23.20;9.35;;;6.90;99.90;;;;;;4974780;28;20045;-95
2023/11/27 07:14:20;;;;;;;23.55;8.52;;;6.90;99.90;;;;;;4997808;28;20323;-94
2023/11/27 07:16:48;;;;;;;18.25;8.30;;;7.00;99.90;;;;;;4998166;28;20038;-93
2023/11/27 07:19:18;;;;;;;14.20;8.32;;;7.00;99.90;;;;;;4986035;28;20035;-91
2023/11/27 07:21:46;;;;;;;15.02;8.75;;;7.10;99.90;;;;;;4988614;28;20034;-92
2023/11/27 07:24:12;;;;;;;;;;;7.10;99.90;;;;;;4986982;28;20030;-92
2023/11/27 07:26:40;;;;;;;18.10;8.00;;;7.00;99.90;;;;;;4989814;28;19925;-94
2023/11/27 07:29:06;;;;;;;17.52;8.30;;;7.10;99.90;;;;;;4989872;28;20173;-92
2023/11/27 07:31:32;;;;;;;18.08;8.18;;;7.10;99.90;;;;;;4989298;28;20124;-91
2023/11/27 07:33:58;;;;;;;19.10;8.13;;;7.10;99.90;;;;;;4986842;28;20106;-91
2023/11/27 07:36:25;;;;;;;21.92;9.20;;;7.00;99.90;;;;;;4994447;28;20038;-92
2023/11/27 07:38:53;;;;;;;15.32;8.13;;;6.90;99.90;;;;;;4990578;28;20037;-92
2023/11/27 07:41:20;;;;;;;14.45;8.23;;;6.90;99.90;;;;;;4992132;28;20033;-93
2023/11/27 07:43:46;;;;;;;14.80;8.43;;;6.90;99.90;;;;;;4993749;28;20085;-93
2023/11/27 07:46:12;;;;;;;14.02;7.93;;;6.90;99.90;;;;;;4986520;28;20035;-90
2023/11/27 07:48:42;;;;;;;14.82;8.05;;;6.90;99.90;;;;;;4989985;28;20114;-89
2023/11/27 07:51:10;;;;;;;21.80;8.85;;;6.90;99.90;;;;;;4974110;28;20046;-92
2023/11/27 07:53:36;;;;;;;12.57;7.55;;;6.90;99.90;;;;;;4989119;28;20053;-91
2023/11/27 07:56:07;;;;;;;12.70;8.05;;;6.90;99.90;;;;;;4994487;28;20038;-92
2023/11/27 07:58:32;;;;;;;15.07;7.85;;;6.90;99.90;;;;;;4987608;28;20117;-92
2023/11/27 08:01:00;;;;;;;17.83;8.80;;;7.00;99.90;;;;;;4988793;28;20121;-93
2023/11/27 08:03:31;;;;;;;11.88;7.18;;;7.00;99.90;;;;;;4986255;28;20034;-91
2023/11/27 08:05:59;;;;;;;17.17;8.40;;;7.00;99.90;;;;;;4985208;28;20034;-92
2023/11/27 08:08:29;;;;;;;11.80;7.57;;;6.90;99.90;;;;;;4989924;28;20121;-92
2023/11/27 08:10:56;;;;;;;15.93;7.90;;;7.00;99.90;;;;;;4983858;28;20035;-90
2023/11/27 08:13:25;;;;;;;19.40;7.65;;;6.90;99.90;;;;;;4994992;28;20092;-92
2023/11/27 08:15:52;;;;;;;;;;;6.90;99.90;;;;;;4991609;28;20034;-92
2023/11/27 08:18:19;;;;;;;14.05;6.88;;;6.90;99.90;;;;;;4990565;28;19909;-90
2023/11/27 08:20:50;;;;;;;14.40;7.20;;;6.90;99.90;;;;;;4985517;28;20484;-92
2023/11/27 08:23:20;;;;;;;12.20;6.30;;;6.80;99.90;;;;;;4988424;28;20281;-93
2023/11/27 08:25:48;;;;;;;11.80;6.60;;;6.90;99.90;;;;;;4986758;28;20031;-92
2023/11/27 08:28:15;;;;;;;10.90;6.10;;;6.90;99.90;;;;;;4991463;28;20027;-92
2023/11/27 08:30:41;;;;;;;10.70;6.43;;;6.90;99.90;;;;;;4993279;28;20121;-90
2023/11/27 08:33:07;;;;;;;12.82;7.22;;;6.80;99.90;;;;;;4990777;28;20409;-91
2023/11/27 08:35:34;;;;;;;13.45;7.07;;;6.90;99.90;;;;;;4990783;28;20084;-91
2023/11/27 08:38:02;;;;;;;14.23;6.50;;;7.00;99.90;;;;;;4985203;28;20030;-92
2023/11/27 08:40:29;;;;;;;12.63;6.55;;;7.00;99.90;;;;;;4988367;28;20030;-93
2023/11/27 08:43:00;;;;;;;12.85;6.82;;;7.20;99.90;;;;;;4994749;28;20034;-92
2023/11/27 08:45:28;;;;;;;16.45;6.75;;;7.20;99.90;;;;;;4991263;28;20026;-90
2023/11/27 08:47:55;;;;;;;13.27;6.68;;;7.20;99.90;;;;;;4989602;28;20896;-92
2023/11/27 08:50:27;;;;;;;12.82;7.10;;;7.20;99.90;;;;;;4970291;28;20031;-90
2023/11/27 08:52:57;;;;;;;12.43;6.95;;;7.10;99.90;;;;;;4985286;28;20022;-90
2023/11/27 08:55:28;;;;;;;17.42;6.95;;;7.10;99.90;;;;;;4990575;28;20069;-91
2023/11/27 08:58:03;;;;;;;14.80;6.88;;;7.10;99.90;;;;;;4985240;28;20052;-92
2023/11/27 09:00:30;;;;;;;14.73;5.97;;;7.10;99.90;;;;;;4991815;28;20096;-92
2023/11/27 09:02:59;;;;;;;14.48;6.65;;;7.10;99.90;;;;;;4989618;28;20033;-91
2023/11/27 09:05:33;;;;;;;8.93;5.43;;;7.10;99.90;;;;;;4987476;28;20030;-92
2023/11/27 09:08:05;;;;;;;11.25;5.93;;;7.10;99.90;;;;;;4978372;28;20039;-91
2023/11/27 09:10:35;;;;;;;9.98;6.20;;;7.00;99.90;;;;;;4986870;28;20030;-93
2023/11/27 09:13:01;;;;;;;12.18;5.50;;;7.10;99.90;;;;;;4989516;28;20395;-93
2023/11/27 09:15:27;;;;;;;9.38;4.78;;;7.20;99.90;;;;;;4990389;28;20027;-92
2023/11/27 09:17:55;;;;;;;10.05;5.57;;;7.20;99.90;;;;;;4982595;28;20023;-88
2023/11/27 09:20:25;;;;;;;14.65;6.10;;;7.10;99.90;;;;;;4991328;28;20061;-91
2023/11/27 09:22:52;;;;;;;11.65;5.78;;;7.10;99.90;;;;;;4989950;28;20037;-92
2023/11/27 09:25:18;;;;;;;9.63;5.40;;;7.10;99.90;;;;;;4990110;28;20022;-90
2023/11/27 09:27:46;;;;;;;9.10;5.53;;;7.10;99.90;;;;;;5002895;28;20117;-94
2023/11/27 09:30:12;;;;;;;10.82;5.25;;;7.10;99.90;;;;;;5005739;28;20022;-94
2023/11/27 09:32:39;;;;;;;8.82;5.03;;;7.00;99.90;;;;;;4998101;28;20038;-93
2023/11/27 09:35:08;;;;;;;6.82;4.78;;;7.00;99.90;;;;;;5015269;28;20077;-93
2023/11/27 09:37:39;;;;;;;9.20;5.78;;;7.00;99.90;;;;;;4998497;28;20034;-92
2023/11/27 09:40:08;;;;;;;10.43;5.00;;;7.00;99.90;;;;;;4990400;28;20038;-93
2023/11/27 09:42:37;;;;;;;6.57;4.47;;;7.10;99.90;;;;;;4991673;28;20683;-92
2023/11/27 09:45:12;;;;;;;9.45;5.28;;;7.10;99.90;;;;;;4988180;28;20703;-94
2023/11/27 09:47:39;;;;;;;9.80;4.90;;;7.00;99.90;;;;;;4975812;28;20042;-91
2023/11/27 09:50:11;;;;;;;8.30;4.85;;;7.00;99.90;;;;;;4983559;28;20105;-93
2023/11/27 09:53:05;;;;;;;10.13;4.85;;;6.90;99.90;;;;;;4990650;28;20066;-92
2023/11/27 09:55:37;;;;;;;11.77;4.43;;;7.10;99.90;;;;;;4995036;28;20034;-92
2023/11/27 09:58:05;;;;;;;8.48;4.68;;;7.00;99.90;;;;;;4988615;28;20029;-93
2023/11/27 10:00:36;;;;;;;6.22;4.05;;;7.10;99.90;;;;;;4988835;28;20026;-92
2023/11/27 10:03:05;;;;;;;7.82;4.15;;;7.10;99.90;;;;;;4986615;28;20050;-93
2023/11/27 10:05:33;;;;;;;11.20;4.90;;;7.00;99.90;;;;;;4991737;28;20034;-93
2023/11/27 10:08:03;;;;;;;8.20;4.03;;;7.10;99.90;;;;;;4985340;28;20052;-93
2023/11/27 10:10:33;;;;;;;7.35;4.32;;;7.10;99.90;;;;;;4991226;28;20022;-93
2023/11/27 10:13:05;;;;;;;9.82;4.65;;;7.10;99.90;;;;;;4985474;28;20122;-93
2023/11/27 10:15:31;;;;;;;15.25;4.65;;;7.20;99.90;;;;;;4990505;28;20019;-92
2023/11/27 10:17:58;;;;;;;7.28;4.43;;;7.20;99.90;;;;;;4987900;28;20112;-90
2023/11/27 10:20:24;;;;;;;12.45;4.95;;;7.00;99.90;;;;;;5000829;28;20057;-91
2023/11/27 10:22:52;;;;;;;12.82;5.97;;;7.00;99.90;;;;;;4994311;28;20034;-91
2023/11/27 10:25:23;;;;;;;9.52;4.30;;;7.10;99.90;;;;;;4988534;28;20030;-92
2023/11/27 10:28:02;;;;;;;13.23;5.15;;;7.00;99.90;;;;;;4980700;28;20042;-94
2023/11/27 10:30:31;;;;;;;11.82;4.97;;;7.10;99.90;;;;;;4996740;28;20034;-92
2023/11/27 10:32:57;;;;;;;14.70;4.75;;;7.00;99.90;;;;;;5005788;28;20069;-92
2023/11/27 10:35:25;;;;;;;9.52;5.13;;;7.00;99.90;;;;;;4998389;28;20034;-92
2023/11/27 10:37:54;;;;;;;8.13;4.30;;;7.00;99.90;;;;;;5000189;28;20034;-93
2023/11/27 10:40:26;;;;;;;7.15;3.97;;;7.00;99.90;;;;;;5006665;28;20732;-94
2023/11/27 10:42:58;;;;;;;7.03;3.88;;;7.00;99.90;;;;;;5000501;28;20037;-93
2023/11/27 10:45:26;;;;;;;6.80;4.07;;;6.90;99.90;;;;;;4999743;28;20026;-93
2023/11/27 10:47:53;;;;;;;5.90;3.60;;;6.90;99.90;;;;;;5001990;28;20031;-94
2023/11/27 10:50:22;;;;;;;6.68;3.50;;;6.90;99.90;;;;;;5007350;28;20026;-91
2023/11/27 10:52:50;;;;;;;6.68;3.47;;;6.80;99.90;;;;;;5007426;28;20066;-90
2023/11/27 10:55:20;;;;;;;8.25;4.13;;;6.70;99.90;;;;;;5000283;28;20026;-93
2023/11/27 10:57:47;;;;;;;8.40;4.38;;;6.60;99.90;;;;;;4999182;28;20065;-92
2023/11/27 11:00:18;;;;;;;9.50;4.63;;;6.60;99.90;;;;;;5004513;28;20049;-92
2023/11/27 11:02:51;;;;;;;9.13;4.18;;;6.70;99.90;;;;;;5013206;28;20248;-92
2023/11/27 11:05:32;;;;;;;14.15;4.20;;;6.80;99.90;;;;;;5003264;28;20404;-93
2023/11/27 11:08:02;;;;;;;8.60;4.13;;;6.70;99.90;;;;;;4989205;28;20059;-93
2023/11/27 11:10:31;;;;;;;8.45;4.45;;;6.70;99.90;;;;;;4993715;28;20089;-93
2023/11/27 11:13:07;;;;;;;9.10;4.20;;;6.60;99.90;;;;;;5001077;28;20050;-92
2023/11/27 11:16:05;;;;;;;10.98;4.30;;;6.70;99.90;;;;;;4999325;28;20090;-92
2023/11/27 11:18:43;;;;;;;7.38;3.65;;;6.60;99.90;;;;;;4981799;28;20045;-92
2023/11/27 11:21:27;;;;;;;9.15;3.78;;;6.60;99.90;;;;;;4999755;28;20038;-91
2023/11/27 11:24:18;;;;;;;8.48;4.22;;;6.50;99.90;;;;;;5018370;28;20045;-93
2023/11/27 11:27:11;;;;;;;9.00;4.35;;;6.50;99.90;;;;;;5020454;28;20050;-93
2023/11/27 11:29:44;;;;;;;8.95;4.03;;;6.50;99.90;;;;;;5008404;28;20098;-95
2023/11/27 11:32:16;;;;;;;10.55;4.32;;;6.50;99.90;;;;;;5006562;28;20018;-95
2023/11/27 11:34:47;;;;;;;9.10;4.13;;;6.60;99.90;;;;;;5006467;28;20101;-95
2023/11/27 11:37:14;;;;;;;8.40;3.95;;;6.60;99.90;;;;;;5017394;28;20014;-94
2023/11/27 11:39:49;;;;;;;11.82;4.10;;;6.50;99.90;;;;;;5005551;28;20081;-95
2023/11/27 11:42:21;;;;;;;10.07;4.43;;;6.60;99.90;;;;;;5004451;28;20472;-93
2023/11/27 11:47:43;;;;;;;8.52;4.65;;;6.60;99.90;;;;;;5007661;28;20027;-93
2023/11/27 11:50:27;;;;;;;8.95;4.07;;;6.50;99.90;;;;;;5008350;28;20022;-94
2023/11/27 11:53:13;;;;;;;7.35;3.92;;;6.40;99.90;;;;;;5023595;28;20022;-93
2023/11/27 11:55:40;;;;;;;4.70;3.40;;;6.50;99.90;;;;;;4999660;28;20038;-93
2023/11/27 11:58:18;;;;;;;7.15;4.03;;;6.40;99.90;;;;;;5009238;28;20035;-94
2023/11/27 12:00:46;;;;;;;8.02;4.30;;;6.40;99.90;;;;;;5006629;28;20092;-93
2023/11/27 12:03:17;;;;;;;6.85;3.63;;;6.40;99.90;;;;;;5007866;28;20177;-96
2023/11/27 12:05:53;;;;;;;7.57;3.70;;;6.60;99.90;;;;;;5025127;28;20045;-93
2023/11/27 12:08:22;;;;;;;5.05;2.97;;;6.30;99.90;;;;;;5004989;28;20034;-94
2023/11/27 12:10:48;;;;;;;7.68;3.63;;;6.30;99.90;;;;;;4995280;28;20042;-92
2023/11/27 12:13:15;;;;;;;5.53;3.20;;;6.40;99.90;;;;;;4996641;28;20025;-92
2023/11/27 12:15:43;;;;;;;7.65;3.13;;;6.40;99.90;;;;;;4992178;28;20034;-95
2023/11/27 12:18:09;;;;;;;5.03;3.42;;;6.10;99.90;;;;;;5004797;28;20076;-92
2023/11/27 12:20:42;;;;;;;9.65;3.05;;;6.20;99.90;;;;;;4993902;28;20069;-93
2023/11/27 12:23:14;;;;;;;6.85;3.15;;;6.10;99.90;;;;;;4989443;28;20050;-92
2023/11/27 12:25:44;;;;;;;7.80;3.42;;;6.10;99.90;;;;;;4998888;28;20038;-91
2023/11/27 12:28:13;;;;;;;7.10;3.47;;;6.10;99.90;;;;;;4995451;28;20022;-92
2023/11/27 12:30:43;;;;;;;7.07;3.03;;;6.30;99.90;;;;;;4995338;28;20709;-93
2023/11/27 12:33:15;;;;;;;4.35;2.97;;;6.20;99.90;;;;;;4994706;28;20030;-93
2023/11/27 12:35:42;;;;;;;6.82;3.00;;;5.90;99.90;;;;;;4994821;28;20066;-91
2023/11/27 12:38:11;;;;;;;8.95;3.55;;;6.00;99.90;;;;;;4992954;28;20045;-93
2023/11/27 12:40:37;;;;;;;10.52;2.83;;;6.10;99.90;;;;;;4993344;28;20194;-93
2023/11/27 12:43:07;;;;;;;7.63;3.60;;;6.10;99.90;;;;;;4989734;28;20034;-93
2023/11/27 12:45:37;;;;;;;11.95;4.30;;;6.10;99.90;;;;;;4987717;28;20033;-92
2023/11/27 12:48:08;;;;;;;10.35;3.97;;;6.00;99.90;;;;;;4988713;28;20030;-92
2023/11/27 12:50:39;;;;;;;15.20;5.03;;;6.10;99.90;;;;;;4988938;28;20192;-91
2023/11/27 12:53:09;;;;;;;11.15;3.92;;;6.10;99.90;;;;;;4982292;28;20026;-92
2023/11/27 12:55:47;;;;;;;8.60;3.50;;;6.20;99.90;;;;;;4985368;28;20026;-92
2023/11/27 12:58:21;;;;;;;10.25;4.18;;;6.20;99.90;;;;;;4982437;28;20118;-91
2023/11/27 13:00:51;;;;;;;8.68;3.90;;;6.30;99.90;;;;;;4988223;28;20502;-93